createdAt,value
2023-03-01T05:15:17.020Z,0.00
2023-03-01T05:16:17.086Z,0.00
2023-03-01T05:17:16.993Z,0.00
2023-03-01T05:18:16.971Z,0.00
2023-03-01T05:19:17.130Z,0.00
2023-03-01T05:20:16.952Z,0.00
2023-03-01T05:21:17.390Z,0.00
2023-03-01T05:22:16.936Z,0.00
2023-03-01T05:23:16.918Z,0.00
2023-03-01T05:24:16.899Z,0.00
2023-03-01T05:25:16.900Z,0.00
2023-03-01T05:26:27.902Z,0.00
2023-03-01T05:27:17.863Z,0.00
2023-03-01T05:28:16.853Z,0.00
2023-03-01T05:29:16.837Z,0.00
2023-03-01T05:30:16.823Z,0.00
2023-03-01T05:31:16.889Z,0.00
2023-03-01T05:32:16.994Z,0.00
2023-03-01T05:33:16.811Z,0.00
2023-03-01T05:34:16.790Z,0.00
2023-03-01T05:35:16.767Z,0.00
2023-03-01T05:36:16.765Z,0.00
2023-03-01T05:37:16.747Z,0.00
2023-03-01T05:38:16.726Z,0.00
2023-03-01T05:39:16.717Z,0.00
2023-03-01T05:40:16.728Z,0.00
2023-03-01T05:41:16.714Z,0.00
2023-03-01T05:42:16.682Z,0.00
2023-03-01T05:43:16.680Z,0.00
2023-03-01T05:44:16.652Z,0.00
2023-03-01T05:45:16.637Z,0.00
2023-03-01T05:46:16.706Z,0.00
2023-03-01T05:47:16.618Z,0.00
2023-03-01T05:48:16.596Z,0.00
2023-03-01T05:49:16.600Z,0.00
2023-03-01T05:50:16.574Z,0.00
2023-03-01T05:51:16.571Z,0.00
2023-03-01T05:52:16.562Z,0.00
2023-03-01T05:53:16.552Z,0.00
2023-03-01T05:54:16.525Z,0.00
2023-03-01T05:55:16.550Z,0.00
2023-03-01T05:56:16.501Z,0.00
2023-03-01T05:57:16.509Z,0.00
2023-03-01T05:58:16.484Z,0.00
2023-03-01T05:59:16.472Z,0.00
2023-03-01T06:00:16.441Z,0.00
2023-03-01T06:01:16.443Z,0.00
2023-03-01T06:02:16.431Z,0.00
2023-03-01T06:03:16.422Z,0.00
2023-03-01T06:04:16.455Z,0.00
2023-03-01T06:05:16.439Z,0.00
2023-03-01T06:06:16.368Z,0.00
2023-03-01T06:07:16.370Z,0.00
2023-03-01T06:08:16.356Z,0.00
2023-03-01T06:09:16.342Z,0.00
2023-03-01T06:10:16.329Z,0.00
2023-03-01T06:11:16.324Z,0.00
2023-03-01T06:12:16.308Z,0.00
2023-03-01T06:13:16.309Z,0.00
2023-03-01T06:14:16.269Z,0.00
2023-03-01T06:15:16.269Z,0.00
2023-03-01T06:16:16.352Z,0.00
2023-03-01T06:17:16.259Z,5.62
2023-03-01T06:18:16.218Z,5.62
2023-03-01T06:19:16.226Z,5.62
2023-03-01T06:20:16.201Z,5.62
2023-03-01T06:21:16.196Z,5.62
2023-03-01T06:22:16.183Z,5.62
2023-03-01T06:23:16.184Z,5.62
2023-03-01T06:24:16.155Z,5.62
2023-03-01T06:25:16.136Z,5.62
2023-03-01T06:26:16.134Z,5.62
2023-03-01T06:27:16.129Z,11.25
2023-03-01T06:28:16.098Z,11.25
2023-03-01T06:29:16.107Z,11.25
2023-03-01T06:30:16.067Z,11.25
2023-03-01T06:31:16.116Z,11.25
2023-03-01T06:32:16.086Z,11.25
2023-03-01T06:33:16.047Z,11.25
2023-03-01T06:34:16.024Z,11.25
2023-03-01T06:35:16.015Z,11.25
2023-03-01T06:36:16.003Z,16.88
2023-03-01T06:37:15.995Z,16.88
2023-03-01T06:38:15.975Z,16.88
2023-03-01T06:39:15.954Z,16.88
2023-03-01T06:40:15.981Z,16.88
2023-03-01T06:41:15.935Z,16.88
2023-03-01T06:42:15.923Z,16.88
2023-03-01T06:43:15.923Z,22.50
2023-03-01T06:44:15.902Z,22.50
2023-03-01T06:45:15.888Z,22.50
2023-03-01T06:46:15.978Z,22.50
2023-03-01T06:47:15.883Z,22.50
2023-03-01T06:48:15.875Z,22.50
2023-03-01T06:49:15.834Z,22.50
2023-03-01T06:50:15.864Z,28.12
2023-03-01T06:51:15.814Z,28.12
2023-03-01T06:52:15.811Z,28.12
2023-03-01T06:53:15.802Z,28.12
2023-03-01T06:54:15.774Z,28.12
2023-03-01T06:55:15.769Z,28.12
2023-03-01T06:56:15.741Z,33.75
2023-03-01T06:57:15.725Z,33.75
2023-03-01T06:58:15.725Z,33.75
2023-03-01T06:59:15.705Z,33.75
2023-03-01T07:00:15.685Z,33.75
2023-03-01T07:01:15.730Z,33.75
2023-03-01T07:02:15.662Z,33.75
2023-03-01T07:03:15.672Z,39.38
2023-03-01T07:04:15.633Z,39.38
2023-03-01T07:05:15.636Z,39.38
2023-03-01T07:06:15.614Z,39.38
2023-03-01T07:07:15.603Z,39.38
2023-03-01T07:08:15.612Z,39.38
2023-03-01T07:09:15.569Z,45.00
2023-03-01T07:10:15.567Z,45.00
2023-03-01T07:11:15.550Z,45.00
2023-03-01T07:12:15.539Z,45.00
2023-03-01T07:13:15.543Z,45.00
2023-03-01T07:14:15.498Z,45.00
2023-03-01T07:15:15.500Z,50.62
2023-03-01T07:16:15.553Z,50.62
2023-03-01T07:17:15.468Z,50.62
2023-03-01T07:18:15.459Z,50.62
2023-03-01T07:19:15.448Z,50.62
2023-03-01T07:20:15.435Z,50.62
2023-03-01T07:21:15.430Z,50.62
2023-03-01T07:22:15.431Z,56.25
2023-03-01T07:23:15.419Z,56.25
2023-03-01T07:24:15.387Z,56.25
2023-03-01T07:25:15.377Z,56.25
2023-03-01T07:26:15.370Z,56.25
2023-03-01T07:27:15.346Z,56.25
2023-03-01T07:28:15.346Z,56.25
2023-03-01T07:29:15.330Z,56.25
2023-03-01T07:30:15.319Z,61.88
2023-03-01T07:31:15.297Z,61.88
2023-03-01T07:32:15.359Z,61.88
2023-03-01T07:33:15.354Z,61.88
2023-03-01T07:34:15.264Z,61.88
2023-03-01T07:35:15.242Z,61.88
2023-03-01T07:36:15.264Z,61.88
2023-03-01T07:37:15.212Z,61.88
2023-03-01T07:38:15.224Z,61.88
2023-03-01T07:39:15.191Z,67.50
2023-03-01T07:40:15.197Z,67.50
2023-03-01T07:41:15.163Z,67.50
2023-03-01T07:42:15.166Z,67.50
2023-03-01T07:43:15.163Z,67.50
2023-03-01T07:44:15.134Z,67.50
2023-03-01T07:45:15.147Z,67.50
2023-03-01T07:46:15.111Z,67.50
2023-03-01T07:47:15.092Z,67.50
2023-03-01T07:48:15.092Z,67.50
2023-03-01T07:49:15.080Z,67.50
2023-03-01T07:50:15.050Z,73.12
2023-03-01T07:51:15.043Z,73.12
2023-03-01T07:52:15.070Z,73.12
2023-03-01T07:53:15.036Z,73.12
2023-03-01T07:54:15.005Z,73.12
2023-03-01T07:55:14.979Z,73.12
2023-03-01T07:56:14.976Z,73.12
2023-03-01T07:57:14.962Z,73.12
2023-03-01T07:58:14.958Z,73.12
2023-03-01T07:59:14.928Z,73.12
2023-03-01T08:00:14.954Z,78.75
2023-03-01T08:01:14.907Z,78.75
2023-03-01T08:02:15.011Z,78.75
2023-03-01T08:04:14.875Z,78.75
2023-03-01T08:05:14.862Z,78.75
2023-03-01T08:06:14.858Z,78.75
2023-03-01T08:07:14.834Z,78.75
2023-03-01T08:08:14.826Z,78.75
2023-03-01T08:09:14.812Z,84.38
2023-03-01T08:10:14.799Z,84.38
2023-03-01T08:11:14.794Z,84.38
2023-03-01T08:12:14.784Z,84.38
2023-03-01T08:13:14.818Z,84.38
2023-03-01T08:14:14.753Z,84.38
2023-03-01T08:15:14.741Z,84.38
2023-03-01T08:16:14.773Z,84.38
2023-03-01T08:17:14.708Z,84.38
2023-03-01T08:18:14.696Z,90.00
2023-03-01T08:19:14.707Z,90.00
2023-03-01T08:20:14.677Z,90.00
2023-03-01T08:21:14.668Z,90.00
2023-03-01T08:22:14.668Z,90.00
2023-03-01T08:23:14.637Z,90.00
2023-03-01T08:24:14.630Z,90.00
2023-03-01T08:25:14.606Z,90.00
2023-03-01T08:26:14.590Z,90.00
2023-03-01T08:27:14.576Z,90.00
2023-03-01T08:28:14.557Z,90.00
2023-03-01T08:29:14.567Z,90.00
2023-03-01T08:30:14.534Z,90.00
2023-03-01T08:31:14.535Z,90.00
2023-03-01T08:32:14.665Z,90.00
2023-03-01T08:33:14.520Z,90.00
2023-03-01T08:34:14.512Z,95.62
2023-03-01T08:35:14.484Z,95.62
2023-03-01T08:36:14.454Z,95.62
2023-03-01T08:37:14.446Z,95.62
2023-03-01T08:38:14.424Z,95.62
2023-03-01T08:39:14.433Z,95.62
2023-03-01T08:40:14.415Z,101.25
2023-03-01T08:41:14.400Z,101.25
2023-03-01T08:42:14.386Z,101.25
2023-03-01T08:43:14.382Z,101.25
2023-03-01T08:44:14.401Z,101.25
2023-03-01T08:45:14.343Z,106.88
2023-03-01T08:46:14.388Z,106.88
2023-03-01T08:47:14.323Z,106.88
2023-03-01T08:48:14.302Z,106.88
2023-03-01T08:49:14.324Z,106.88
2023-03-01T08:50:14.335Z,106.88
2023-03-01T08:51:14.276Z,106.88
2023-03-01T08:52:14.252Z,106.88
2023-03-01T08:53:14.252Z,112.50
2023-03-01T08:54:14.288Z,112.50
2023-03-01T08:55:14.221Z,112.50
2023-03-01T08:56:14.201Z,112.50
2023-03-01T08:57:14.191Z,112.50
2023-03-01T08:58:14.181Z,112.50
2023-03-01T08:59:14.191Z,112.50
2023-03-01T09:00:14.152Z,118.12
2023-03-01T09:01:14.148Z,118.12
2023-03-01T09:02:14.188Z,118.12
2023-03-01T09:03:14.121Z,118.12
2023-03-01T09:04:15.160Z,118.12
2023-03-01T09:05:14.096Z,118.12
2023-03-01T09:06:14.077Z,123.75
2023-03-01T09:07:14.056Z,123.75
2023-03-01T09:08:14.106Z,123.75
2023-03-01T09:09:14.041Z,123.75
2023-03-01T09:10:14.020Z,129.38
2023-03-01T09:11:14.008Z,129.38
2023-03-01T09:12:14.138Z,129.38
2023-03-01T09:13:13.994Z,129.38
2023-03-01T09:14:14.017Z,135.00
2023-03-01T09:15:13.970Z,135.00
2023-03-01T09:16:13.974Z,135.00
2023-03-01T09:17:13.928Z,140.62
2023-03-01T09:18:13.937Z,140.62
2023-03-01T09:19:13.929Z,140.62
2023-03-01T09:20:13.901Z,140.62
2023-03-01T09:21:13.881Z,146.25
2023-03-01T09:22:14.055Z,146.25
2023-03-01T09:23:13.860Z,146.25
2023-03-01T09:24:13.840Z,146.25
2023-03-01T09:25:13.838Z,146.25
2023-03-01T09:26:13.821Z,146.25
2023-03-01T09:27:13.893Z,151.88
2023-03-01T09:28:27.582Z,151.88
2023-03-01T09:29:14.777Z,157.50
2023-03-01T09:30:13.769Z,157.50
2023-03-01T09:31:13.848Z,157.50
2023-03-01T09:32:13.764Z,163.12
2023-03-01T09:33:13.731Z,163.12
2023-03-01T09:34:13.709Z,168.75
2023-03-01T09:35:13.714Z,168.75
2023-03-01T09:36:13.688Z,168.75
2023-03-01T09:37:13.671Z,174.38
2023-03-01T09:38:13.657Z,174.38
2023-03-01T09:39:13.636Z,174.38
2023-03-01T09:40:13.652Z,174.38
2023-03-01T09:41:13.615Z,174.38
2023-03-01T09:42:13.657Z,180.00
2023-03-01T09:43:13.595Z,185.62
2023-03-01T09:44:13.583Z,191.25
2023-03-01T09:45:13.576Z,202.50
2023-03-01T09:46:13.585Z,208.12
2023-03-01T09:47:13.538Z,208.12
2023-03-01T09:48:13.525Z,208.12
2023-03-01T09:49:13.506Z,213.75
2023-03-01T09:50:13.516Z,219.38
2023-03-01T09:51:13.487Z,219.38
2023-03-01T09:52:13.478Z,225.00
2023-03-01T09:53:13.456Z,230.62
2023-03-01T09:54:13.448Z,236.25
2023-03-01T09:55:13.453Z,241.88
2023-03-01T09:56:13.427Z,258.75
2023-03-01T09:57:13.405Z,281.25
2023-03-01T09:58:13.395Z,320.62
2023-03-01T09:59:13.379Z,410.62
2023-03-01T10:00:13.374Z,708.75
2023-03-01T10:01:13.354Z,933.75
2023-03-01T10:02:13.345Z,1001.25
2023-03-01T10:03:13.334Z,1023.75
2023-03-01T10:04:13.430Z,1035.00
2023-03-01T10:05:13.451Z,1091.25
2023-03-01T10:06:23.904Z,1130.62
2023-03-01T10:07:14.278Z,1153.12
2023-03-01T10:08:13.265Z,1153.12
2023-03-01T10:09:13.247Z,1158.75
2023-03-01T10:10:13.248Z,1186.88
2023-03-01T10:11:13.215Z,1220.62
2023-03-01T10:12:13.226Z,1181.25
2023-03-01T10:13:13.197Z,1192.50
2023-03-01T10:14:13.186Z,1231.88
2023-03-01T10:15:13.175Z,1288.12
2023-03-01T10:16:13.228Z,1282.50
2023-03-01T10:17:13.144Z,1310.62
2023-03-01T10:18:13.147Z,1288.12
2023-03-01T10:19:13.116Z,1237.50
2023-03-01T10:20:13.127Z,1260.00
2023-03-01T10:21:13.096Z,1231.88
2023-03-01T10:22:13.095Z,1254.38
2023-03-01T10:23:13.080Z,1321.88
2023-03-01T10:24:13.051Z,1321.88
2023-03-01T10:25:13.053Z,1355.62
2023-03-01T10:26:13.043Z,1338.75
2023-03-01T10:27:13.013Z,1338.75
2023-03-01T10:28:13.003Z,1383.75
2023-03-01T10:29:12.991Z,1383.75
2023-03-01T10:30:12.979Z,1383.75
2023-03-01T10:31:12.996Z,1411.88
2023-03-01T10:32:12.985Z,1434.38
2023-03-01T10:33:12.935Z,1411.88
2023-03-01T10:34:12.916Z,1400.62
2023-03-01T10:35:12.903Z,1423.12
2023-03-01T10:36:12.911Z,1428.75
2023-03-01T10:37:12.873Z,1434.38
2023-03-01T10:38:12.863Z,2874.38
2023-03-01T10:39:12.858Z,2874.38
2023-03-01T10:40:12.838Z,2874.38
2023-03-01T10:41:12.832Z,2874.38
2023-03-01T10:42:12.812Z,1428.75
2023-03-01T10:43:12.810Z,1423.12
2023-03-01T10:44:12.784Z,2874.38
2023-03-01T10:45:12.787Z,2874.38
2023-03-01T10:46:12.849Z,2874.38
2023-03-01T10:47:12.742Z,2874.38
2023-03-01T10:48:12.731Z,2874.38
2023-03-01T10:49:12.714Z,2874.38
2023-03-01T10:50:12.714Z,2874.38
2023-03-01T10:51:12.702Z,2874.38
2023-03-01T10:52:12.682Z,2874.38
2023-03-01T10:53:12.664Z,1406.25
2023-03-01T10:54:12.653Z,2874.38
2023-03-01T10:55:12.643Z,2874.38
2023-03-01T10:56:12.632Z,2874.38
2023-03-01T10:57:12.610Z,2874.38
2023-03-01T10:58:12.602Z,2874.38
2023-03-01T10:59:12.584Z,2874.38
2023-03-01T11:00:12.612Z,2874.38
2023-03-01T11:01:12.608Z,2874.38
2023-03-01T11:02:23.631Z,2874.38
2023-03-01T11:03:13.523Z,2874.38
2023-03-01T11:04:12.538Z,2874.38
2023-03-01T11:05:12.511Z,2874.38
2023-03-01T11:06:12.517Z,2874.38
2023-03-01T11:07:12.480Z,2874.38
2023-03-01T11:08:12.478Z,2874.38
2023-03-01T11:09:12.459Z,2874.38
2023-03-01T11:10:12.444Z,2874.38
2023-03-01T11:11:12.432Z,2874.38
2023-03-01T11:12:12.420Z,2874.38
2023-03-01T11:13:12.412Z,2874.38
2023-03-01T11:14:25.484Z,2874.38
2023-03-01T11:15:13.374Z,2874.38
2023-03-01T11:16:12.440Z,2874.38
2023-03-01T11:17:12.356Z,2874.38
2023-03-01T11:18:14.235Z,2874.38
2023-03-01T11:19:12.321Z,2874.38
2023-03-01T11:20:12.339Z,2874.38
2023-03-01T11:21:12.320Z,2874.38
2023-03-01T11:22:12.300Z,2874.38
2023-03-01T11:23:12.292Z,2874.38
2023-03-01T11:24:12.261Z,2874.38
2023-03-01T11:25:12.256Z,2874.38
2023-03-01T11:26:13.150Z,2874.38
2023-03-01T11:27:12.226Z,2874.38
2023-03-01T11:28:12.206Z,2874.38
2023-03-01T11:29:12.184Z,2874.38
2023-03-01T11:30:12.174Z,2874.38
2023-03-01T11:31:12.177Z,2874.38
2023-03-01T11:32:12.234Z,2874.38
2023-03-01T11:33:12.230Z,2874.38
2023-03-01T11:34:12.119Z,2874.38
2023-03-01T11:35:12.116Z,2874.38
2023-03-01T11:36:12.139Z,2874.38
2023-03-01T11:37:12.092Z,2874.38
2023-03-01T11:38:12.060Z,2874.38
2023-03-01T11:39:12.086Z,2874.38
2023-03-01T11:40:12.054Z,2874.38
2023-03-01T11:41:12.048Z,2874.38
2023-03-01T11:42:18.411Z,2874.38
2023-03-01T11:43:13.038Z,2874.38
2023-03-01T11:44:11.992Z,2874.38
2023-03-01T11:45:11.978Z,2874.38
2023-03-01T11:46:12.964Z,2874.38
2023-03-01T11:47:12.031Z,2874.38
2023-03-01T11:48:11.938Z,2874.38
2023-03-01T11:49:11.917Z,2874.38
2023-03-01T11:50:11.908Z,2874.38
2023-03-01T11:51:11.889Z,2874.38
2023-03-01T11:52:11.887Z,2874.38
2023-03-01T11:53:11.922Z,2874.38
2023-03-01T11:54:11.854Z,2874.38
2023-03-01T11:55:11.828Z,2874.38
2023-03-01T11:56:11.912Z,2874.38
2023-03-01T11:57:11.819Z,2874.38
2023-03-01T11:58:11.822Z,2874.38
2023-03-01T11:59:11.789Z,2874.38
2023-03-01T12:00:11.770Z,2874.38
2023-03-01T12:01:11.758Z,2874.38
2023-03-01T12:02:11.791Z,2874.38
2023-03-01T12:03:11.731Z,2874.38
2023-03-01T12:04:11.728Z,2874.38
2023-03-01T12:05:11.704Z,2874.38
2023-03-01T12:06:11.691Z,2874.38
2023-03-01T12:07:11.682Z,2874.38
2023-03-01T12:08:11.663Z,2874.38
2023-03-01T12:09:11.650Z,2874.38
2023-03-01T12:10:11.664Z,2874.38
2023-03-01T12:11:11.624Z,2874.38
2023-03-01T12:12:11.626Z,2874.38
2023-03-01T12:13:11.591Z,2874.38
2023-03-01T12:14:11.590Z,2874.38
2023-03-01T12:15:11.573Z,2874.38
2023-03-01T12:16:11.574Z,2874.38
2023-03-01T12:17:11.580Z,2874.38
2023-03-01T12:18:11.533Z,2874.38
2023-03-01T12:19:11.512Z,2874.38
2023-03-01T12:20:11.511Z,2874.38
2023-03-01T12:21:11.516Z,2874.38
2023-03-01T12:22:11.549Z,2874.38
2023-03-01T12:23:19.976Z,2874.38
2023-03-01T12:24:12.467Z,2874.38
2023-03-01T12:25:11.443Z,2874.38
2023-03-01T12:26:13.287Z,2874.38
2023-03-01T12:27:11.422Z,2874.38
2023-03-01T12:28:11.402Z,2874.38
2023-03-01T12:29:11.382Z,2874.38
2023-03-01T12:30:11.373Z,2874.38
2023-03-01T12:31:11.430Z,2874.38
2023-03-01T12:32:11.458Z,2874.38
2023-03-01T12:33:11.335Z,2874.38
2023-03-01T12:34:11.333Z,2874.38
2023-03-01T12:35:11.320Z,2874.38
2023-03-01T12:36:11.335Z,2874.38
2023-03-01T12:37:11.307Z,2874.38
2023-03-01T12:38:11.284Z,2874.38
2023-03-01T12:39:11.266Z,2874.38
2023-03-01T12:40:11.256Z,2874.38
2023-03-01T12:41:11.240Z,2874.38
2023-03-01T12:42:11.242Z,2874.38
2023-03-01T12:43:11.211Z,2874.38
2023-03-01T12:44:11.198Z,2874.38
2023-03-01T12:45:11.186Z,2874.38
2023-03-01T12:46:11.193Z,2874.38
2023-03-01T12:47:11.168Z,2874.38
2023-03-01T12:48:11.280Z,2874.38
2023-03-01T12:49:11.158Z,2874.38
2023-03-01T12:50:11.125Z,2874.38
2023-03-01T12:51:11.098Z,2874.38
2023-03-01T12:52:11.114Z,2874.38
2023-03-01T12:53:11.078Z,2874.38
2023-03-01T12:54:11.068Z,2874.38
2023-03-01T12:55:11.054Z,2874.38
2023-03-01T12:56:11.038Z,2874.38
2023-03-01T12:57:11.039Z,2874.38
2023-03-01T12:58:11.031Z,2874.38
2023-03-01T12:59:10.998Z,2874.38
2023-03-01T13:00:10.990Z,2874.38
2023-03-01T13:01:11.025Z,2874.38
2023-03-01T13:02:10.987Z,2874.38
2023-03-01T13:03:10.948Z,2874.38
2023-03-01T13:04:10.956Z,2874.38
2023-03-01T13:05:10.918Z,2874.38
2023-03-01T13:06:10.915Z,2874.38
2023-03-01T13:07:10.905Z,2874.38
2023-03-01T13:08:10.885Z,2874.38
2023-03-01T13:09:10.867Z,2874.38
2023-03-01T13:10:10.864Z,2874.38
2023-03-01T13:11:10.846Z,2874.38
2023-03-01T13:12:19.956Z,2874.38
2023-03-01T13:13:11.816Z,2874.38
2023-03-01T13:14:10.808Z,2874.38
2023-03-01T13:15:10.799Z,2874.38
2023-03-01T13:16:10.828Z,2874.38
2023-03-01T13:17:10.756Z,2874.38
2023-03-01T13:18:10.773Z,2874.38
2023-03-01T13:19:10.765Z,2874.38
2023-03-01T13:20:10.779Z,2874.38
2023-03-01T13:21:10.716Z,2874.38
2023-03-01T13:22:10.698Z,2874.38
2023-03-01T13:23:10.701Z,2874.38
2023-03-01T13:24:10.681Z,2874.38
2023-03-01T13:25:10.657Z,2874.38
2023-03-01T13:26:10.659Z,2874.38
2023-03-01T13:27:10.638Z,2874.38
2023-03-01T13:28:10.636Z,2874.38
2023-03-01T13:29:10.616Z,2874.38
2023-03-01T13:30:10.647Z,2874.38
2023-03-01T13:31:10.590Z,2874.38
2023-03-01T13:32:10.679Z,2874.38
2023-03-01T13:33:10.608Z,2874.38
2023-03-01T13:34:10.547Z,2874.38
2023-03-01T13:35:10.538Z,2874.38
2023-03-01T13:36:10.559Z,2874.38
2023-03-01T13:37:10.517Z,2874.38
2023-03-01T13:38:10.520Z,2874.38
2023-03-01T13:39:10.503Z,2874.38
2023-03-01T13:40:10.525Z,2874.38
2023-03-01T13:41:10.464Z,1288.12
2023-03-01T13:42:10.453Z,545.62
2023-03-01T13:43:10.441Z,163.12
2023-03-01T13:44:10.431Z,157.50
2023-03-01T13:45:10.417Z,157.50
2023-03-01T13:46:10.448Z,151.88
2023-03-01T13:47:10.482Z,151.88
2023-03-01T13:48:10.409Z,151.88
2023-03-01T13:49:10.364Z,151.88
2023-03-01T13:50:10.355Z,151.88
2023-03-01T13:51:10.336Z,151.88
2023-03-01T13:52:10.326Z,151.88
2023-03-01T13:53:10.316Z,151.88
2023-03-01T13:54:10.305Z,146.25
2023-03-01T13:55:10.287Z,146.25
2023-03-01T13:56:10.267Z,146.25
2023-03-01T13:57:10.256Z,146.25
2023-03-01T13:58:10.257Z,146.25
2023-03-01T13:59:10.226Z,146.25
2023-03-01T14:00:10.219Z,146.25
2023-03-01T14:01:10.234Z,146.25
2023-03-01T14:02:10.194Z,140.62
2023-03-01T14:03:10.322Z,140.62
2023-03-01T14:04:10.205Z,140.62
2023-03-01T14:05:10.146Z,140.62
2023-03-01T14:06:15.864Z,140.62
2023-03-01T14:07:11.118Z,140.62
2023-03-01T14:08:10.126Z,140.62
2023-03-01T14:09:10.106Z,140.62
2023-03-01T14:10:10.085Z,140.62
2023-03-01T14:11:10.073Z,135.00
2023-03-01T14:12:10.061Z,135.00
2023-03-01T14:13:16.028Z,135.00
2023-03-01T14:14:11.024Z,135.00
2023-03-01T14:15:10.037Z,135.00
2023-03-01T14:16:10.045Z,135.00
2023-03-01T14:17:09.992Z,135.00
2023-03-01T14:18:10.000Z,129.38
2023-03-01T14:19:10.207Z,129.38
2023-03-01T14:20:10.008Z,129.38
2023-03-01T14:21:09.928Z,129.38
2023-03-01T14:22:09.907Z,129.38
2023-03-01T14:23:09.923Z,129.38
2023-03-01T14:24:09.928Z,129.38
2023-03-01T14:25:09.894Z,129.38
2023-03-01T14:26:09.859Z,123.75
2023-03-01T14:27:09.888Z,123.75
2023-03-01T14:28:09.849Z,123.75
2023-03-01T14:29:09.836Z,123.75
2023-03-01T14:30:09.808Z,123.75
2023-03-01T14:31:09.835Z,123.75
2023-03-01T14:32:09.811Z,123.75
2023-03-01T14:33:09.775Z,123.75
2023-03-01T14:34:09.766Z,123.75
2023-03-01T14:35:09.752Z,123.75
2023-03-01T14:36:09.727Z,123.75
2023-03-01T14:37:09.716Z,123.75
2023-03-01T14:38:09.696Z,123.75
2023-03-01T14:39:09.705Z,123.75
2023-03-01T14:40:09.680Z,123.75
2023-03-01T14:41:09.665Z,118.12
2023-03-01T14:42:15.303Z,118.12
2023-03-01T14:43:10.644Z,118.12
2023-03-01T14:44:09.634Z,118.12
2023-03-01T14:45:09.606Z,118.12
2023-03-01T14:46:09.602Z,118.12
2023-03-01T14:47:09.586Z,118.12
2023-03-01T14:48:09.576Z,118.12
2023-03-01T14:49:09.574Z,118.12
2023-03-01T14:50:09.546Z,118.12
2023-03-01T14:51:09.537Z,118.12
2023-03-01T14:52:09.519Z,118.12
2023-03-01T14:53:09.519Z,118.12
2023-03-01T14:54:09.506Z,118.12
2023-03-01T14:55:09.479Z,118.12
2023-03-01T14:56:09.469Z,112.50
2023-03-01T14:57:09.460Z,112.50
2023-03-01T14:58:09.449Z,112.50
2023-03-01T14:59:09.452Z,112.50
2023-03-01T15:00:09.438Z,112.50
2023-03-01T15:01:09.421Z,112.50
2023-03-01T15:02:09.404Z,112.50
2023-03-01T15:03:09.379Z,112.50
2023-03-01T15:04:09.397Z,112.50
2023-03-01T15:05:09.415Z,106.88
2023-03-01T15:06:09.341Z,106.88
2023-03-01T15:07:09.329Z,106.88
2023-03-01T15:08:09.308Z,106.88
2023-03-01T15:09:09.321Z,106.88
2023-03-01T15:10:09.292Z,106.88
2023-03-01T15:11:09.434Z,106.88
2023-03-01T15:12:09.269Z,106.88
2023-03-01T15:13:09.250Z,106.88
2023-03-01T15:14:09.239Z,101.25
2023-03-01T15:15:09.239Z,101.25
2023-03-01T15:16:09.381Z,101.25
2023-03-01T15:17:09.197Z,101.25
2023-03-01T15:18:09.186Z,101.25
2023-03-01T15:19:09.210Z,101.25
2023-03-01T15:20:09.150Z,101.25
2023-03-01T15:21:09.143Z,101.25
2023-03-01T15:22:09.126Z,101.25
2023-03-01T15:23:09.113Z,101.25
2023-03-01T15:24:09.105Z,101.25
2023-03-01T15:25:09.082Z,101.25
2023-03-01T15:26:09.131Z,95.62
2023-03-01T15:27:09.062Z,95.62
2023-03-01T15:28:09.050Z,95.62
2023-03-01T15:29:11.434Z,95.62
2023-03-01T15:30:09.026Z,95.62
2023-03-01T15:31:09.030Z,95.62
2023-03-01T15:32:09.002Z,95.62
2023-03-01T15:33:08.987Z,95.62
2023-03-01T15:34:08.979Z,95.62
2023-03-01T15:35:08.947Z,95.62
2023-03-01T15:36:08.934Z,90.00
2023-03-01T15:37:08.947Z,90.00
2023-03-01T15:38:10.322Z,90.00
2023-03-01T15:39:08.904Z,90.00
2023-03-01T15:40:08.885Z,90.00
2023-03-01T15:41:08.885Z,90.00
2023-03-01T15:42:08.845Z,90.00
2023-03-01T15:43:08.845Z,90.00
2023-03-01T15:44:08.837Z,90.00
2023-03-01T15:45:08.816Z,84.38
2023-03-01T15:46:08.913Z,84.38
2023-03-01T15:47:08.824Z,84.38
2023-03-01T15:48:08.773Z,84.38
2023-03-01T15:49:08.796Z,84.38
2023-03-01T15:50:08.778Z,84.38
2023-03-01T15:51:08.806Z,84.38
2023-03-01T15:52:08.751Z,84.38
2023-03-01T15:53:08.715Z,84.38
2023-03-01T15:54:08.712Z,78.75
2023-03-01T15:55:08.684Z,78.75
2023-03-01T15:56:08.698Z,78.75
2023-03-01T15:57:08.665Z,78.75
2023-03-01T15:58:08.658Z,78.75
2023-03-01T15:59:08.645Z,78.75
2023-03-01T16:00:08.647Z,78.75
2023-03-01T16:01:08.619Z,78.75
2023-03-01T16:02:08.599Z,73.12
2023-03-01T16:03:08.638Z,73.12
2023-03-01T16:04:08.694Z,73.12
2023-03-01T16:05:08.565Z,73.12
2023-03-01T16:06:08.550Z,73.12
2023-03-01T16:07:08.532Z,73.12
2023-03-01T16:08:08.517Z,73.12
2023-03-01T16:09:08.506Z,73.12
2023-03-01T16:10:08.497Z,67.50
2023-03-01T16:11:08.476Z,67.50
2023-03-01T16:12:08.468Z,67.50
2023-03-01T16:13:08.446Z,67.50
2023-03-01T16:14:08.511Z,67.50
2023-03-01T16:15:08.472Z,73.12
2023-03-01T16:16:08.449Z,90.00
2023-03-01T16:17:08.396Z,118.12
2023-03-01T16:18:08.398Z,123.75
2023-03-01T16:19:08.374Z,90.00
2023-03-01T16:20:09.902Z,90.00
2023-03-01T16:21:08.346Z,95.62
2023-03-01T16:22:08.338Z,95.62
2023-03-01T16:23:08.324Z,101.25
2023-03-01T16:24:08.306Z,95.62
2023-03-01T16:25:08.325Z,95.62
2023-03-01T16:26:08.284Z,95.62
2023-03-01T16:27:08.276Z,95.62
2023-03-01T16:28:08.255Z,95.62
2023-03-01T16:29:08.234Z,90.00
2023-03-01T16:30:08.254Z,90.00
2023-03-01T16:31:08.274Z,90.00
2023-03-01T16:32:08.330Z,84.38
2023-03-01T16:33:24.202Z,84.38
2023-03-01T16:34:09.253Z,84.38
2023-03-01T16:35:08.169Z,78.75
2023-03-01T16:36:08.233Z,73.12
2023-03-01T16:37:08.138Z,67.50
2023-03-01T16:38:08.124Z,56.25
2023-03-01T16:39:08.104Z,39.38
2023-03-01T16:40:08.104Z,33.75
2023-03-01T16:41:08.088Z,33.75
2023-03-01T16:42:08.073Z,33.75
2023-03-01T16:43:08.059Z,28.12
2023-03-01T16:44:08.046Z,28.12
2023-03-01T16:45:18.473Z,28.12
2023-03-01T16:46:09.113Z,28.12
2023-03-01T16:47:08.005Z,28.12
2023-03-01T16:48:08.006Z,22.50
2023-03-01T16:49:07.976Z,22.50
2023-03-01T16:50:07.974Z,22.50
2023-03-01T16:51:07.953Z,22.50
2023-03-01T16:52:07.956Z,22.50
2023-03-01T16:53:07.936Z,16.88
2023-03-01T16:54:07.925Z,16.88
2023-03-01T16:55:07.910Z,16.88
2023-03-01T16:56:07.891Z,16.88
2023-03-01T16:57:07.871Z,16.88
2023-03-01T16:58:07.866Z,16.88
2023-03-01T16:59:07.845Z,11.25
2023-03-01T17:00:07.855Z,11.25
2023-03-01T17:01:07.904Z,11.25
2023-03-01T17:02:07.816Z,11.25
2023-03-01T17:03:07.858Z,11.25
2023-03-01T17:04:07.799Z,11.25
2023-03-01T17:05:07.781Z,11.25
2023-03-01T17:06:07.761Z,5.62
2023-03-01T17:07:07.729Z,5.62
2023-03-01T17:08:07.721Z,5.62
2023-03-01T17:09:07.710Z,5.62
2023-03-01T17:10:07.701Z,5.62
2023-03-01T17:11:07.700Z,5.62
2023-03-01T17:12:07.679Z,5.62
2023-03-01T17:13:07.659Z,5.62
2023-03-01T17:14:07.663Z,0.00
2023-03-01T17:15:07.680Z,0.00
2023-03-01T17:16:07.695Z,0.00
2023-03-01T17:17:07.622Z,0.00
2023-03-01T17:18:07.596Z,0.00
2023-03-01T17:19:07.590Z,0.00
2023-03-01T17:20:07.624Z,0.00
2023-03-01T17:21:07.591Z,0.00
2023-03-01T17:22:07.546Z,0.00
2023-03-01T17:23:07.537Z,0.00
2023-03-01T17:24:07.516Z,0.00
2023-03-01T17:25:07.506Z,0.00
2023-03-01T17:26:07.500Z,0.00
2023-03-01T17:27:07.493Z,0.00
2023-03-01T17:28:07.465Z,0.00
2023-03-01T17:29:07.456Z,0.00
2023-03-01T17:30:07.441Z,0.00
2023-03-01T17:31:07.455Z,0.00
2023-03-01T17:32:07.493Z,0.00
2023-03-01T17:33:07.473Z,0.00
2023-03-01T17:34:07.390Z,0.00
2023-03-01T17:35:07.373Z,0.00
2023-03-01T17:36:07.377Z,0.00
2023-03-01T17:37:07.371Z,0.00
2023-03-01T17:38:07.331Z,0.00
2023-03-01T17:39:07.323Z,0.00
2023-03-01T17:40:07.304Z,0.00
2023-03-01T17:41:07.312Z,0.00
2023-03-01T17:42:07.325Z,0.00
2023-03-01T17:43:07.278Z,0.00
2023-03-01T17:44:07.250Z,0.00
2023-03-01T17:45:07.269Z,0.00
2023-03-01T17:46:07.311Z,0.00
2023-03-01T17:47:07.219Z,0.00
2023-03-01T17:48:07.223Z,0.00
2023-03-01T17:49:07.195Z,0.00
2023-03-01T17:50:07.179Z,0.00
2023-03-01T17:51:07.184Z,0.00
2023-03-01T17:52:07.201Z,0.00